Apgar, Montana
Current Conditions -  °F | °C
As of 1:02 AM on Tuesday 27 Jan 2015 (Local Time) from KGPI Reporting Station
Moderate Fog Moderate Fog  
Wind Chill: 20°   Ceiling: 100
Heat Index: 20°   Visibility: 0.25mi
Dew Point: 20°   Wind: 0mph
Humidity: 100%   Direction: NA
Pressure: 30.02"   Gusts: NA
Location:  48.5033°N, 113.981°W
Report Text: KGPI 270802Z AUTO 00000KT 1/4SM FZFG VV001 M07/M07 A3002 RMK AO2 T10671067
Loading
Personal Weather Stations






























Interactive Weather Map New forecast layout! Learn more

10-Day Weather Forecast

Advertisements
Track Severe Weather on mobile